Nearby METAR Reports

 

LIBV - Gioia Del Colle, Italy
Distance from station: ЮЮИ 15km
Актуализирано: 22/09/2019 02:55
Тихо и ясно
Тихо и ясно
 Вятър от З
Вятър: З 4 km/h
Температура: 10°C
Точка на оросяване: 9°C
Влажност: 94%
Барометър: 1021 hPa
Метео сводка: Тихо и ясно
Visibility: greater than 10 km
2019/09/22 00:55 LIBV 220055Z 26002KT CAVOK 10/09 Q1021 RMK SKC VIS MIN 9999 WIND THR32 14001KT WIND THR14 26003KT BLU
LIBD - Bari/Palese Macc, Italy
Distance from station: ССЗ 26km
Актуализирано: 22/09/2019 03:20
Тихо и ясно
Тихо и ясно
 Вятър от ЮЗ
Вятър: ЮЗ 9 km/h
Температура: 13°C
Точка на оросяване: 10°C
Влажност: 82%
Барометър: 1022 hPa
Метео сводка: Тихо и ясно
Visibility: greater than 10 km
2019/09/22 01:20 LIBD 220120Z 22005KT CAVOK 13/10 Q1022
 
LIBH - Marina Di Ginosa, Italy
Distance from station: Ю 53km
Актуализирано: 21/09/2019 19:55
NOT Current
Тихо и ясно
Тихо и ясно
 Вятър от ССЗ
Вятър: ССЗ 7 km/h
Температура: 20°C
Точка на оросяване: 14°C
Влажност: 69%
Барометър: 1020 hPa
Метео сводка: Тихо и ясно
Visibility: greater than 10 km
2019/09/21 17:55 LIBH 211755Z 34004KT CAVOK 20/14 Q1020 RMK FEW FEW200 QUK / QUL / VIS MAR /M VIS MIN 9999
LIBG - Grottaglie(Civ/A, Italy
Distance from station: ЮИ 61km
Актуализирано: 21/09/2019 19:50
NOT Current
Тихо и ясно
Тихо и ясно
 Вятър от И
Вятър: И 6 km/h
Температура: 19°C
Точка на оросяване: 14°C
Влажност: 73%
Барометър: 1021 hPa
Метео сводка: Тихо и ясно
Visibility: greater than 10 km
2019/09/21 17:50 LIBG 211750Z 08003KT 050V110 CAVOK 19/14 Q1021
 
LIBR - Brindisi/Casale, Italy
Distance from station: ИЮИ 96km
Актуализирано: 22/09/2019 03:20
Тихо и ясно
Тихо и ясно
 Вятър от ЮЗ
Вятър: ЮЗ 6 km/h
Температура: 16°C
Точка на оросяване: 13°C
Влажност: 83%
Барометър: 1021 hPa
Метео сводка: Тихо и ясно
Visibility: greater than 10 km
2019/09/22 01:20 LIBR 220120Z 22003KT CAVOK 16/13 Q1021
LIBA - Amendola (it-Afb, Italy
Distance from station: СЗ 118km
Актуализирано: 22/09/2019 02:55
Тихо и ясно
Тихо и ясно
 Вятър от varies
Вятър: varies 4 km/h
Температура: 15°C
Точка на оросяване: 12°C
Влажност: 82%
Барометър: 1021 hPa
Метео сводка: Тихо и ясно
Visibility: greater than 10 km
2019/09/22 00:55 LIBA 220055Z VRB02KT CAVOK 15/12 Q1021 RMK SKC VIS MIN 9999 WIND THR11 VRB02KT WIND THR29 /////KT BLU
 
LIBF - Foggia/Gino Lisa, Italy
Distance from station: ЗСЗ 126km
Актуализирано: 21/09/2019 17:50
NOT Current
Тихо и ясно
Тихо и ясно
 Вятър от ССИ
Вятър: ССИ 11 km/h
Температура: 23°C
Точка на оросяване: 11°C
Влажност: 47%
Барометър: 1022 hPa
Метео сводка: Тихо и ясно
Visibility: greater than 10 km
2019/09/21 15:50 LIBF 211550Z 02006KT CAVOK 23/11 Q1022
LIBN - Lecce (it-Afb), Italy
Distance from station: ЮИ 132km
Актуализирано: 22/09/2019 02:55
Тихо и ясно
Тихо и ясно
 Вятър от varies
Вятър: varies 4 km/h
Температура: 13°C
Точка на оросяване: 11°C
Влажност: 88%
Барометър: 1022 hPa
Метео сводка: Тихо и ясно
Visibility: greater than 10 km
2019/09/22 00:55 LIBN 220055Z VRB02KT CAVOK 13/11 Q1022 RMK SKC VIS MIN 9999 WIND THR14 VRB02KT WIND THR32 VRB02KT BLU